sensor_id;sensor_type;location;lat;lon;timestamp;pressure;altitude;pressure_sealevel;temperature;humidity
15487;BME280;7845;53.698;10.078;2023-04-02T00:00:00;101246.53;;;6.30;100.00
15487;BME280;7845;53.698;10.078;2023-04-02T00:02:30;101253.47;;;6.30;100.00
15487;BME280;7845;53.698;10.078;2023-04-02T00:05:27;101253.47;;;6.30;100.00
15487;BME280;7845;53.698;10.078;2023-04-02T00:08:42;101256.78;;;6.21;100.00
15487;BME280;7845;53.698;10.078;2023-04-02T00:11:08;101264.56;;;6.23;100.00
15487;BME280;7845;53.698;10.078;2023-04-02T00:13:42;101267.31;;;6.33;100.00
15487;BME280;7845;53.698;10.078;2023-04-02T00:16:13;101273.88;;;6.11;100.00
15487;BME280;7845;53.698;10.078;2023-04-02T00:18:52;101272.97;;;6.60;100.00
15487;BME280;7845;53.698;10.078;2023-04-02T00:21:25;101281.78;;;6.19;100.00
15487;BME280;7845;53.698;10.078;2023-04-02T00:23:53;101277.78;;;5.91;100.00
15487;BME280;7845;53.698;10.078;2023-04-02T00:26:31;101286.38;;;5.89;100.00
15487;BME280;7845;53.698;10.078;2023-04-02T00:29:00;101285.72;;;5.99;100.00
15487;BME280;7845;53.698;10.078;2023-04-02T00:31:26;101282.41;;;6.06;100.00
15487;BME280;7845;53.698;10.078;2023-04-02T00:33:52;101285.28;;;6.21;100.00
15487;BME280;7845;53.698;10.078;2023-04-02T00:36:19;101297.09;;;6.07;100.00
15487;BME280;7845;53.698;10.078;2023-04-02T00:38:46;101306.75;;;5.74;100.00
15487;BME280;7845;53.698;10.078;2023-04-02T00:41:21;101301.69;;;5.78;100.00
15487;BME280;7845;53.698;10.078;2023-04-02T00:43:48;101322.41;;;5.78;100.00
15487;BME280;7845;53.698;10.078;2023-04-02T00:46:16;101326.38;;;5.63;100.00
15487;BME280;7845;53.698;10.078;2023-04-02T00:48:49;101326.38;;;5.61;100.00
15487;BME280;7845;53.698;10.078;2023-04-02T00:51:23;101325.94;;;5.82;100.00
15487;BME280;7845;53.698;10.078;2023-04-02T00:53:53;101327.38;;;6.09;100.00
15487;BME280;7845;53.698;10.078;2023-04-02T00:56:32;101328.75;;;5.91;100.00
15487;BME280;7845;53.698;10.078;2023-04-02T00:59:00;101332.22;;;5.93;100.00
15487;BME280;7845;53.698;10.078;2023-04-02T01:01:29;101335.06;;;6.05;100.00
15487;BME280;7845;53.698;10.078;2023-04-02T01:04:01;101344.72;;;6.13;100.00
15487;BME280;7845;53.698;10.078;2023-04-02T01:06:31;101341.00;;;5.99;100.00
15487;BME280;7845;53.698;10.078;2023-04-02T01:09:16;101353.72;;;5.89;100.00
15487;BME280;7845;53.698;10.078;2023-04-02T01:11:57;101348.44;;;6.26;100.00
15487;BME280;7845;53.698;10.078;2023-04-02T01:20:19;101357.59;;;5.69;100.00
15487;BME280;7845;53.698;10.078;2023-04-02T01:23:16;101377.91;;;5.88;100.00
15487;BME280;7845;53.698;10.078;2023-04-02T01:25:56;101382.53;;;6.04;100.00
15487;BME280;7845;53.698;10.078;2023-04-02T01:31:45;101390.56;;;6.16;100.00
15487;BME280;7845;53.698;10.078;2023-04-02T01:34:17;101393.47;;;5.89;100.00
15487;BME280;7845;53.698;10.078;2023-04-02T01:37:10;101398.97;;;6.04;100.00
15487;BME280;7845;53.698;10.078;2023-04-02T01:45:07;101402.06;;;5.87;100.00
15487;BME280;7845;53.698;10.078;2023-04-02T01:47:33;101415.78;;;5.47;100.00
15487;BME280;7845;53.698;10.078;2023-04-02T01:50:18;101419.72;;;5.67;100.00
15487;BME280;7845;53.698;10.078;2023-04-02T01:52:50;101418.31;;;5.83;100.00
15487;BME280;7845;53.698;10.078;2023-04-02T01:55:19;101413.81;;;6.11;100.00
15487;BME280;7845;53.698;10.078;2023-04-02T01:57:49;101421.31;;;5.99;100.00
15487;BME280;7845;53.698;10.078;2023-04-02T02:00:18;101426.63;;;5.67;100.00
15487;BME280;7845;53.698;10.078;2023-04-02T02:02:48;101437.13;;;5.74;100.00
15487;BME280;7845;53.698;10.078;2023-04-02T02:05:17;101431.50;;;5.92;100.00
15487;BME280;7845;53.698;10.078;2023-04-02T02:07:45;101435.09;;;5.97;100.00
15487;BME280;7845;53.698;10.078;2023-04-02T02:10:16;101435.81;;;5.91;100.00
15487;BME280;7845;53.698;10.078;2023-04-02T02:12:42;101449.34;;;5.80;100.00
15487;BME280;7845;53.698;10.078;2023-04-02T02:15:14;101451.16;;;5.82;100.00
15487;BME280;7845;53.698;10.078;2023-04-02T02:17:42;101449.22;;;5.38;100.00
15487;BME280;7845;53.698;10.078;2023-04-02T02:20:10;101465.47;;;5.68;100.00
15487;BME280;7845;53.698;10.078;2023-04-02T02:22:40;101463.19;;;5.44;100.00
15487;BME280;7845;53.698;10.078;2023-04-02T02:25:14;101473.16;;;5.64;100.00
15487;BME280;7845;53.698;10.078;2023-04-02T02:27:48;101469.91;;;5.74;100.00
15487;BME280;7845;53.698;10.078;2023-04-02T02:30:35;101476.50;;;5.59;100.00
15487;BME280;7845;53.698;10.078;2023-04-02T02:33:22;101481.75;;;5.63;100.00
15487;BME280;7845;53.698;10.078;2023-04-02T02:35:58;101487.44;;;5.48;100.00
15487;BME280;7845;53.698;10.078;2023-04-02T02:44:26;101490.03;;;5.84;100.00
15487;BME280;7845;53.698;10.078;2023-04-02T02:46:57;101496.53;;;5.67;100.00
15487;BME280;7845;53.698;10.078;2023-04-02T02:49:39;101508.34;;;5.23;100.00
15487;BME280;7845;53.698;10.078;2023-04-02T02:54:37;101517.06;;;5.25;100.00
15487;BME280;7845;53.698;10.078;2023-04-02T02:57:09;101522.41;;;5.31;100.00
15487;BME280;7845;53.698;10.078;2023-04-02T02:59:36;101523.31;;;5.33;100.00
15487;BME280;7845;53.698;10.078;2023-04-02T03:02:04;101524.84;;;5.26;100.00
15487;BME280;7845;53.698;10.078;2023-04-02T03:04:31;101528.13;;;5.19;100.00
15487;BME280;7845;53.698;10.078;2023-04-02T03:07:00;101534.56;;;5.35;100.00
15487;BME280;7845;53.698;10.078;2023-04-02T03:09:35;101536.47;;;5.42;100.00
15487;BME280;7845;53.698;10.078;2023-04-02T03:12:23;101537.28;;;5.39;100.00
15487;BME280;7845;53.698;10.078;2023-04-02T03:15:17;101547.13;;;5.52;100.00
15487;BME280;7845;53.698;10.078;2023-04-02T03:17:54;101548.31;;;5.67;100.00
15487;BME280;7845;53.698;10.078;2023-04-02T03:20:47;101539.16;;;5.81;100.00
15487;BME280;7845;53.698;10.078;2023-04-02T03:23:31;101551.16;;;5.77;100.00
15487;BME280;7845;53.698;10.078;2023-04-02T03:26:22;101558.97;;;5.79;100.00
15487;BME280;7845;53.698;10.078;2023-04-02T03:28:56;101566.53;;;5.70;100.00
15487;BME280;7845;53.698;10.078;2023-04-02T03:31:32;101559.78;;;5.76;100.00
15487;BME280;7845;53.698;10.078;2023-04-02T03:34:24;101571.63;;;5.67;100.00
15487;BME280;7845;53.698;10.078;2023-04-02T03:36:57;101587.09;;;5.64;100.00
15487;BME280;7845;53.698;10.078;2023-04-02T03:42:18;101593.16;;;5.64;100.00
15487;BME280;7845;53.698;10.078;2023-04-02T03:44:53;101589.38;;;5.53;100.00
15487;BME280;7845;53.698;10.078;2023-04-02T03:50:12;101607.84;;;5.65;100.00
15487;BME280;7845;53.698;10.078;2023-04-02T03:52:40;101611.94;;;5.88;100.00
15487;BME280;7845;53.698;10.078;2023-04-02T03:55:32;101616.47;;;5.98;100.00
15487;BME280;7845;53.698;10.078;2023-04-02T03:58:13;101611.44;;;6.04;100.00
15487;BME280;7845;53.698;10.078;2023-04-02T04:00:46;101615.00;;;6.08;100.00
15487;BME280;7845;53.698;10.078;2023-04-02T04:03:16;101627.94;;;6.08;100.00
15487;BME280;7845;53.698;10.078;2023-04-02T04:05:53;101629.81;;;6.13;100.00
15487;BME280;7845;53.698;10.078;2023-04-02T04:08:24;101632.06;;;6.36;100.00
15487;BME280;7845;53.698;10.078;2023-04-02T04:11:00;101639.94;;;6.39;100.00
15487;BME280;7845;53.698;10.078;2023-04-02T04:13:45;101638.03;;;6.33;100.00
15487;BME280;7845;53.698;10.078;2023-04-02T04:16:21;101639.75;;;6.70;100.00
15487;BME280;7845;53.698;10.078;2023-04-02T04:18:52;101645.22;;;6.82;100.00
15487;BME280;7845;53.698;10.078;2023-04-02T04:21:25;101646.59;;;6.66;100.00
15487;BME280;7845;53.698;10.078;2023-04-02T04:23:56;101651.63;;;6.60;100.00
15487;BME280;7845;53.698;10.078;2023-04-02T04:26:59;101652.94;;;6.79;100.00
15487;BME280;7845;53.698;10.078;2023-04-02T04:29:38;101655.94;;;6.58;100.00
15487;BME280;7845;53.698;10.078;2023-04-02T04:32:25;101661.72;;;6.48;100.00
15487;BME280;7845;53.698;10.078;2023-04-02T04:35:05;101674.19;;;6.63;100.00
15487;BME280;7845;53.698;10.078;2023-04-02T04:37:36;101676.31;;;6.43;100.00
15487;BME280;7845;53.698;10.078;2023-04-02T04:40:19;101686.31;;;6.28;100.00
15487;BME280;7845;53.698;10.078;2023-04-02T04:42:47;101691.47;;;6.27;100.00
15487;BME280;7845;53.698;10.078;2023-04-02T04:45:39;101694.88;;;6.24;100.00
15487;BME280;7845;53.698;10.078;2023-04-02T04:48:15;101695.56;;;6.53;100.00
15487;BME280;7845;53.698;10.078;2023-04-02T04:53:24;101695.72;;;6.60;100.00
15487;BME280;7845;53.698;10.078;2023-04-02T04:55:58;101699.94;;;6.54;100.00
15487;BME280;7845;53.698;10.078;2023-04-02T04:58:48;101709.84;;;6.72;100.00
15487;BME280;7845;53.698;10.078;2023-04-02T05:01:26;101714.44;;;6.83;100.00
15487;BME280;7845;53.698;10.078;2023-04-02T05:03:58;101716.81;;;6.74;100.00
15487;BME280;7845;53.698;10.078;2023-04-02T05:09:12;101727.63;;;6.92;100.00
15487;BME280;7845;53.698;10.078;2023-04-02T05:12:17;101721.28;;;6.81;100.00
15487;BME280;7845;53.698;10.078;2023-04-02T05:14:39;101730.88;;;6.84;100.00
15487;BME280;7845;53.698;10.078;2023-04-02T05:17:13;101737.78;;;6.83;100.00
15487;BME280;7845;53.698;10.078;2023-04-02T05:19:58;101735.75;;;7.07;100.00
15487;BME280;7845;53.698;10.078;2023-04-02T05:22:41;101734.66;;;7.38;100.00
15487;BME280;7845;53.698;10.078;2023-04-02T05:33:20;101743.41;;;7.87;100.00
15487;BME280;7845;53.698;10.078;2023-04-02T05:35:52;101748.94;;;7.58;100.00
15487;BME280;7845;53.698;10.078;2023-04-02T05:38:22;101752.38;;;7.57;100.00
15487;BME280;7845;53.698;10.078;2023-04-02T05:43:44;101759.31;;;7.58;100.00
15487;BME280;7845;53.698;10.078;2023-04-02T05:46:40;101763.00;;;7.69;100.00
15487;BME280;7845;53.698;10.078;2023-04-02T05:49:20;101760.31;;;7.65;100.00
15487;BME280;7845;53.698;10.078;2023-04-02T05:51:49;101768.53;;;7.44;100.00
15487;BME280;7845;53.698;10.078;2023-04-02T05:54:23;101766.56;;;7.74;100.00
15487;BME280;7845;53.698;10.078;2023-04-02T05:57:00;101769.59;;;7.52;100.00
15487;BME280;7845;53.698;10.078;2023-04-02T05:59:35;101780.97;;;7.59;100.00
15487;BME280;7845;53.698;10.078;2023-04-02T06:05:01;101782.97;;;7.72;100.00
15487;BME280;7845;53.698;10.078;2023-04-02T06:07:41;101776.84;;;7.68;100.00
15487;BME280;7845;53.698;10.078;2023-04-02T06:12:47;101779.03;;;7.91;100.00
15487;BME280;7845;53.698;10.078;2023-04-02T06:15:22;101777.97;;;8.27;100.00
15487;BME280;7845;53.698;10.078;2023-04-02T06:18:00;101788.41;;;7.84;100.00
15487;BME280;7845;53.698;10.078;2023-04-02T06:20:31;101788.47;;;7.87;100.00
15487;BME280;7845;53.698;10.078;2023-04-02T06:23:06;101799.34;;;8.11;100.00
15487;BME280;7845;53.698;10.078;2023-04-02T06:25:39;101802.75;;;7.65;100.00
15487;BME280;7845;53.698;10.078;2023-04-02T06:28:13;101804.47;;;8.08;100.00
15487;BME280;7845;53.698;10.078;2023-04-02T06:30:41;101817.38;;;8.02;100.00
15487;BME280;7845;53.698;10.078;2023-04-02T06:33:10;101817.47;;;7.65;100.00
15487;BME280;7845;53.698;10.078;2023-04-02T06:35:38;101813.25;;;7.70;100.00
15487;BME280;7845;53.698;10.078;2023-04-02T06:38:06;101832.28;;;8.12;100.00
15487;BME280;7845;53.698;10.078;2023-04-02T06:40:40;101830.31;;;7.59;100.00
15487;BME280;7845;53.698;10.078;2023-04-02T06:43:15;101833.44;;;7.83;100.00
15487;BME280;7845;53.698;10.078;2023-04-02T06:45:44;101845.38;;;7.73;100.00
15487;BME280;7845;53.698;10.078;2023-04-02T06:48:15;101845.06;;;7.60;100.00
15487;BME280;7845;53.698;10.078;2023-04-02T06:50:47;101851.31;;;8.10;100.00
15487;BME280;7845;53.698;10.078;2023-04-02T06:53:26;101857.63;;;7.80;100.00
15487;BME280;7845;53.698;10.078;2023-04-02T06:56:16;101855.94;;;7.81;100.00
15487;BME280;7845;53.698;10.078;2023-04-02T06:58:43;101853.97;;;8.13;100.00
15487;BME280;7845;53.698;10.078;2023-04-02T07:01:15;101860.41;;;7.88;100.00
15487;BME280;7845;53.698;10.078;2023-04-02T07:03:42;101853.41;;;8.27;100.00
15487;BME280;7845;53.698;10.078;2023-04-02T07:06:16;101864.91;;;8.39;100.00
15487;BME280;7845;53.698;10.078;2023-04-02T07:08:42;101857.94;;;8.85;100.00
15487;BME280;7845;53.698;10.078;2023-04-02T07:11:20;101866.97;;;8.56;100.00
15487;BME280;7845;53.698;10.078;2023-04-02T07:13:46;101874.03;;;8.63;100.00
15487;BME280;7845;53.698;10.078;2023-04-02T07:16:15;101864.03;;;8.87;100.00
15487;BME280;7845;53.698;10.078;2023-04-02T07:18:41;101864.13;;;8.94;100.00
15487;BME280;7845;53.698;10.078;2023-04-02T07:21:06;101878.53;;;8.73;100.00
15487;BME280;7845;53.698;10.078;2023-04-02T07:23:32;101880.22;;;8.68;100.00
15487;BME280;7845;53.698;10.078;2023-04-02T07:26:00;101880.53;;;8.88;100.00
15487;BME280;7845;53.698;10.078;2023-04-02T07:28:26;101886.19;;;9.14;100.00
15487;BME280;7845;53.698;10.078;2023-04-02T07:30:52;101882.91;;;9.25;100.00
15487;BME280;7845;53.698;10.078;2023-04-02T07:33:25;101889.19;;;9.41;100.00
15487;BME280;7845;53.698;10.078;2023-04-02T07:35:53;101879.25;;;9.73;100.00
15487;BME280;7845;53.698;10.078;2023-04-02T07:38:18;101894.00;;;9.72;100.00
15487;BME280;7845;53.698;10.078;2023-04-02T07:40:44;101898.53;;;9.27;100.00
15487;BME280;7845;53.698;10.078;2023-04-02T07:43:09;101911.66;;;9.31;100.00
15487;BME280;7845;53.698;10.078;2023-04-02T07:45:35;101896.47;;;9.65;100.00
15487;BME280;7845;53.698;10.078;2023-04-02T07:48:09;101910.00;;;9.38;100.00
15487;BME280;7845;53.698;10.078;2023-04-02T07:50:35;101914.81;;;9.71;100.00
15487;BME280;7845;53.698;10.078;2023-04-02T07:53:01;101923.91;;;9.38;100.00
15487;BME280;7845;53.698;10.078;2023-04-02T07:55:27;101929.03;;;9.92;100.00
15487;BME280;7845;53.698;10.078;2023-04-02T07:57:55;101927.75;;;9.65;100.00
15487;BME280;7845;53.698;10.078;2023-04-02T08:00:22;101938.28;;;9.71;100.00
15487;BME280;7845;53.698;10.078;2023-04-02T08:02:49;101933.25;;;9.26;100.00
15487;BME280;7845;53.698;10.078;2023-04-02T08:05:15;101940.03;;;9.70;100.00
15487;BME280;7845;53.698;10.078;2023-04-02T08:07:41;101932.41;;;9.84;100.00
15487;BME280;7845;53.698;10.078;2023-04-02T08:10:09;101930.84;;;9.96;99.01
15487;BME280;7845;53.698;10.078;2023-04-02T08:12:36;101928.69;;;10.31;97.82
15487;BME280;7845;53.698;10.078;2023-04-02T08:15:03;101953.22;;;10.45;100.00
15487;BME280;7845;53.698;10.078;2023-04-02T08:17:30;101958.28;;;10.32;100.00
15487;BME280;7845;53.698;10.078;2023-04-02T08:19:56;101964.19;;;10.19;100.00
15487;BME280;7845;53.698;10.078;2023-04-02T08:22:29;101976.50;;;9.67;100.00
15487;BME280;7845;53.698;10.078;2023-04-02T08:24:55;101985.56;;;8.90;100.00
15487;BME280;7845;53.698;10.078;2023-04-02T08:27:22;101992.16;;;9.16;100.00
15487;BME280;7845;53.698;10.078;2023-04-02T08:29:47;102003.13;;;9.00;100.00
15487;BME280;7845;53.698;10.078;2023-04-02T08:32:14;101998.47;;;8.41;100.00
15487;BME280;7845;53.698;10.078;2023-04-02T08:34:43;102009.84;;;8.44;100.00
15487;BME280;7845;53.698;10.078;2023-04-02T08:37:10;102008.75;;;8.76;100.00
15487;BME280;7845;53.698;10.078;2023-04-02T08:39:36;102003.00;;;8.93;100.00
15487;BME280;7845;53.698;10.078;2023-04-02T08:45:22;102008.31;;;9.48;100.00
15487;BME280;7845;53.698;10.078;2023-04-02T08:47:58;102000.13;;;9.25;100.00
15487;BME280;7845;53.698;10.078;2023-04-02T08:50:33;102004.41;;;9.23;100.00
15487;BME280;7845;53.698;10.078;2023-04-02T08:53:01;102011.00;;;9.03;100.00
15487;BME280;7845;53.698;10.078;2023-04-02T08:55:38;102019.53;;;8.95;100.00
15487;BME280;7845;53.698;10.078;2023-04-02T08:58:24;102021.22;;;9.40;100.00
15487;BME280;7845;53.698;10.078;2023-04-02T09:00:55;102034.13;;;8.86;100.00
15487;BME280;7845;53.698;10.078;2023-04-02T09:03:35;102024.75;;;8.53;100.00
15487;BME280;7845;53.698;10.078;2023-04-02T09:06:06;102016.72;;;8.84;96.10
15487;BME280;7845;53.698;10.078;2023-04-02T09:08:35;102067.41;;;9.03;95.84
15487;BME280;7845;53.698;10.078;2023-04-02T09:11:05;102037.94;;;9.05;94.38
15487;BME280;7845;53.698;10.078;2023-04-02T09:13:35;102029.03;;;8.93;92.04
15487;BME280;7845;53.698;10.078;2023-04-02T09:16:08;102039.94;;;9.18;91.76
15487;BME280;7845;53.698;10.078;2023-04-02T09:18:35;102041.69;;;9.69;91.90
15487;BME280;7845;53.698;10.078;2023-04-02T09:21:17;102037.66;;;9.36;89.80
15487;BME280;7845;53.698;10.078;2023-04-02T09:23:46;102039.78;;;9.60;89.59
15487;BME280;7845;53.698;10.078;2023-04-02T09:26:20;102031.72;;;9.43;86.50
15487;BME280;7845;53.698;10.078;2023-04-02T09:28:49;102033.44;;;9.43;86.95
15487;BME280;7845;53.698;10.078;2023-04-02T09:31:18;102041.66;;;9.67;90.38
15487;BME280;7845;53.698;10.078;2023-04-02T09:33:50;102047.19;;;9.87;91.61
15487;BME280;7845;53.698;10.078;2023-04-02T09:36:37;102055.78;;;9.81;91.14
15487;BME280;7845;53.698;10.078;2023-04-02T09:39:23;102048.69;;;9.73;90.20
15487;BME280;7845;53.698;10.078;2023-04-02T09:41:50;102063.03;;;9.99;92.37
15487;BME280;7845;53.698;10.078;2023-04-02T09:44:25;102080.16;;;9.83;93.82
15487;BME280;7845;53.698;10.078;2023-04-02T09:47:05;102095.63;;;9.74;97.96
15487;BME280;7845;53.698;10.078;2023-04-02T09:49:33;102110.34;;;9.23;100.00
15487;BME280;7845;53.698;10.078;2023-04-02T09:52:13;102107.13;;;9.36;99.58
15487;BME280;7845;53.698;10.078;2023-04-02T09:54:40;102116.66;;;9.35;98.29
15487;BME280;7845;53.698;10.078;2023-04-02T09:57:23;102122.66;;;8.88;96.63
15487;BME280;7845;53.698;10.078;2023-04-02T10:02:36;102105.47;;;9.41;94.51
15487;BME280;7845;53.698;10.078;2023-04-02T10:05:04;102104.94;;;9.12;89.68
15487;BME280;7845;53.698;10.078;2023-04-02T10:07:41;102107.25;;;9.42;89.79
15487;BME280;7845;53.698;10.078;2023-04-02T10:10:28;102101.31;;;9.51;91.24
15487;BME280;7845;53.698;10.078;2023-04-02T10:13:18;102113.50;;;9.53;91.43
15487;BME280;7845;53.698;10.078;2023-04-02T10:15:54;102110.59;;;9.84;90.00
15487;BME280;7845;53.698;10.078;2023-04-02T10:21:28;102112.16;;;10.26;88.44
15487;BME280;7845;53.698;10.078;2023-04-02T10:23:56;102118.53;;;9.90;87.38
15487;BME280;7845;53.698;10.078;2023-04-02T10:26:43;102126.88;;;9.71;89.15
15487;BME280;7845;53.698;10.078;2023-04-02T10:34:54;102126.25;;;9.86;82.00
15487;BME280;7845;53.698;10.078;2023-04-02T10:45:48;102152.22;;;9.80;82.64
15487;BME280;7845;53.698;10.078;2023-04-02T10:51:45;102173.97;;;9.79;81.85
15487;BME280;7845;53.698;10.078;2023-04-02T10:56:53;102159.53;;;10.00;81.38
15487;BME280;7845;53.698;10.078;2023-04-02T10:59:22;102174.41;;;10.57;81.77
15487;BME280;7845;53.698;10.078;2023-04-02T11:01:50;102166.84;;;10.18;78.54
15487;BME280;7845;53.698;10.078;2023-04-02T11:04:24;102184.09;;;10.12;80.64
15487;BME280;7845;53.698;10.078;2023-04-02T11:06:57;102185.31;;;10.30;81.79
15487;BME280;7845;53.698;10.078;2023-04-02T11:09:29;102190.09;;;10.59;84.41
15487;BME280;7845;53.698;10.078;2023-04-02T11:11:58;102190.50;;;10.86;84.71
15487;BME280;7845;53.698;10.078;2023-04-02T11:14:30;102203.09;;;11.17;85.46
15487;BME280;7845;53.698;10.078;2023-04-02T11:16:59;102196.47;;;10.79;86.75
15487;BME280;7845;53.698;10.078;2023-04-02T11:19:30;102196.47;;;10.77;85.28
15487;BME280;7845;53.698;10.078;2023-04-02T11:21:58;102199.69;;;10.60;85.34
15487;BME280;7845;53.698;10.078;2023-04-02T11:29:44;102195.59;;;10.78;79.90
15487;BME280;7845;53.698;10.078;2023-04-02T11:32:26;102180.66;;;10.68;78.55
15487;BME280;7845;53.698;10.078;2023-04-02T11:42:48;102208.47;;;10.63;82.01
15487;BME280;7845;53.698;10.078;2023-04-02T11:50:43;102222.97;;;10.46;79.82
15487;BME280;7845;53.698;10.078;2023-04-02T11:58:53;102212.84;;;10.66;75.15
15487;BME280;7845;53.698;10.078;2023-04-02T12:01:52;102211.31;;;10.26;72.65
15487;BME280;7845;53.698;10.078;2023-04-02T12:09:59;102222.94;;;10.44;73.62
15487;BME280;7845;53.698;10.078;2023-04-02T12:12:34;102242.34;;;10.60;75.11
15487;BME280;7845;53.698;10.078;2023-04-02T12:15:01;102251.78;;;10.52;75.70
15487;BME280;7845;53.698;10.078;2023-04-02T12:17:34;102258.13;;;10.17;74.98
15487;BME280;7845;53.698;10.078;2023-04-02T12:22:32;102236.53;;;10.25;71.61
15487;BME280;7845;53.698;10.078;2023-04-02T12:25:01;102248.81;;;10.31;72.51
15487;BME280;7845;53.698;10.078;2023-04-02T12:27:28;102262.56;;;10.21;72.10
15487;BME280;7845;53.698;10.078;2023-04-02T12:33:12;102280.34;;;9.96;68.65
15487;BME280;7845;53.698;10.078;2023-04-02T12:35:38;102258.47;;;10.36;71.68
15487;BME280;7845;53.698;10.078;2023-04-02T12:38:42;102266.50;;;10.47;71.19
15487;BME280;7845;53.698;10.078;2023-04-02T12:41:14;102258.16;;;10.69;70.63
15487;BME280;7845;53.698;10.078;2023-04-02T12:43:44;102234.72;;;10.75;68.05
15487;BME280;7845;53.698;10.078;2023-04-02T12:46:13;102258.22;;;10.74;71.45
15487;BME280;7845;53.698;10.078;2023-04-02T12:48:38;102267.69;;;10.66;72.92
15487;BME280;7845;53.698;10.078;2023-04-02T12:51:04;102257.56;;;10.88;73.83
15487;BME280;7845;53.698;10.078;2023-04-02T12:56:00;102241.91;;;10.34;66.14
15487;BME280;7845;53.698;10.078;2023-04-02T12:58:29;102234.13;;;10.37;65.10
15487;BME280;7845;53.698;10.078;2023-04-02T13:01:11;102246.97;;;10.79;67.86
15487;BME280;7845;53.698;10.078;2023-04-02T13:03:40;102245.16;;;10.75;66.56
15487;BME280;7845;53.698;10.078;2023-04-02T13:06:21;102258.13;;;10.66;67.58
15487;BME280;7845;53.698;10.078;2023-04-02T13:08:48;102255.63;;;10.75;67.03
15487;BME280;7845;53.698;10.078;2023-04-02T13:11:14;102253.84;;;10.73;66.37
15487;BME280;7845;53.698;10.078;2023-04-02T13:13:42;102265.50;;;10.40;66.17
15487;BME280;7845;53.698;10.078;2023-04-02T13:18:36;102256.34;;;10.65;64.07
15487;BME280;7845;53.698;10.078;2023-04-02T13:21:20;102266.81;;;10.67;63.41
15487;BME280;7845;53.698;10.078;2023-04-02T13:23:50;102261.72;;;10.74;63.49
15487;BME280;7845;53.698;10.078;2023-04-02T13:26:24;102279.06;;;10.69;64.06
15487;BME280;7845;53.698;10.078;2023-04-02T13:29:02;102266.91;;;10.73;64.69
15487;BME280;7845;53.698;10.078;2023-04-02T13:31:29;102275.59;;;10.21;63.48
15487;BME280;7845;53.698;10.078;2023-04-02T13:33:55;102269.41;;;10.16;62.56
15487;BME280;7845;53.698;10.078;2023-04-02T13:36:21;102275.91;;;10.90;64.32
15487;BME280;7845;53.698;10.078;2023-04-02T13:38:46;102265.25;;;10.79;63.19
15487;BME280;7845;53.698;10.078;2023-04-02T13:41:23;102267.81;;;10.76;64.35
15487;BME280;7845;53.698;10.078;2023-04-02T13:43:51;102256.47;;;10.20;61.82
15487;BME280;7845;53.698;10.078;2023-04-02T13:46:28;102263.63;;;10.86;63.74
15487;BME280;7845;53.698;10.078;2023-04-02T13:48:54;102275.91;;;10.90;65.27
15487;BME280;7845;53.698;10.078;2023-04-02T13:51:23;102272.13;;;10.73;64.02
15487;BME280;7845;53.698;10.078;2023-04-02T13:53:55;102259.84;;;10.66;61.48
15487;BME280;7845;53.698;10.078;2023-04-02T13:56:23;102272.50;;;10.97;66.15
15487;BME280;7845;53.698;10.078;2023-04-02T13:58:51;102283.53;;;10.27;64.71
15487;BME280;7845;53.698;10.078;2023-04-02T14:01:18;102274.53;;;11.18;64.76
15487;BME280;7845;53.698;10.078;2023-04-02T14:03:44;102300.41;;;10.99;65.20
15487;BME280;7845;53.698;10.078;2023-04-02T14:09:11;102299.97;;;10.71;65.54
15487;BME280;7845;53.698;10.078;2023-04-02T14:20:31;102316.56;;;10.76;69.89
15487;BME280;7845;53.698;10.078;2023-04-02T14:28:39;102332.78;;;11.09;72.78
15487;BME280;7845;53.698;10.078;2023-04-02T14:31:34;102348.25;;;10.97;74.03
15487;BME280;7845;53.698;10.078;2023-04-02T14:36:57;102348.16;;;11.46;73.63
15487;BME280;7845;53.698;10.078;2023-04-02T14:42:39;102348.91;;;11.38;72.88
15487;BME280;7845;53.698;10.078;2023-04-02T14:48:07;102355.06;;;11.44;71.87
15487;BME280;7845;53.698;10.078;2023-04-02T14:50:39;102361.06;;;11.36;73.49
15487;BME280;7845;53.698;10.078;2023-04-02T14:53:24;102365.25;;;11.26;72.12
15487;BME280;7845;53.698;10.078;2023-04-02T14:55:51;102365.75;;;10.51;71.64
15487;BME280;7845;53.698;10.078;2023-04-02T14:58:36;102396.47;;;10.65;72.14
15487;BME280;7845;53.698;10.078;2023-04-02T15:01:20;102395.72;;;10.25;73.70
15487;BME280;7845;53.698;10.078;2023-04-02T15:04:00;102399.44;;;10.38;73.12
15487;BME280;7845;53.698;10.078;2023-04-02T15:06:34;102387.28;;;10.86;74.12
15487;BME280;7845;53.698;10.078;2023-04-02T15:09:26;102377.31;;;10.64;72.13
15487;BME280;7845;53.698;10.078;2023-04-02T15:12:02;102375.75;;;10.75;70.09
15487;BME280;7845;53.698;10.078;2023-04-02T15:14:37;102388.03;;;10.79;69.56
15487;BME280;7845;53.698;10.078;2023-04-02T15:17:09;102377.69;;;10.85;69.92
15487;BME280;7845;53.698;10.078;2023-04-02T15:19:34;102366.19;;;10.76;68.37
15487;BME280;7845;53.698;10.078;2023-04-02T15:22:28;102363.09;;;10.98;68.29
15487;BME280;7845;53.698;10.078;2023-04-02T15:28:30;102384.53;;;10.79;70.00
15487;BME280;7845;53.698;10.078;2023-04-02T15:30:55;102398.56;;;10.85;71.25
15487;BME280;7845;53.698;10.078;2023-04-02T15:39:06;102409.00;;;10.36;68.97
15487;BME280;7845;53.698;10.078;2023-04-02T15:42:07;102409.06;;;10.40;68.25
15487;BME280;7845;53.698;10.078;2023-04-02T15:44:43;102407.88;;;10.70;68.51
15487;BME280;7845;53.698;10.078;2023-04-02T15:47:26;102397.25;;;10.59;67.21
15487;BME280;7845;53.698;10.078;2023-04-02T15:50:25;102423.91;;;10.43;67.38
15487;BME280;7845;53.698;10.078;2023-04-02T15:55:53;102413.09;;;10.25;67.76
15487;BME280;7845;53.698;10.078;2023-04-02T16:01:16;102418.91;;;10.53;69.14
15487;BME280;7845;53.698;10.078;2023-04-02T16:04:16;102434.03;;;10.26;69.03